Time;durP1;ratioP1;P1;durP2;ratioP2;P2;SDS_P1;SDS_P2;PMS_P1;PMS_P2;Temp;Humidity;BMP_temperature;BMP_pressure;BME280_temperature;BME280_humidity;BME280_pressure;Samples;Min_cycle;Max_cycle;Signal;HPM_P1;HPM_P2
2023/07/11 00:00:40;;;;;;;7.50;3.78;;;;;;;22.46;100.00;-18630.22;5081731;28;20592;-76
2023/07/11 00:03:05;;;;;;;5.65;3.40;;;;;;;22.59;100.00;-18633.75;5075201;28;20683;-77
2023/07/11 00:05:31;;;;;;;7.72;3.38;;;;;;;22.70;100.00;-18636.59;5066985;28;20044;-75
2023/07/11 00:07:56;;;;;;;6.25;3.65;;;;;;;22.80;100.00;-18639.19;5083788;28;20821;-75
2023/07/11 00:10:22;;;;;;;8.25;3.78;;;;;;;22.75;100.00;-18637.97;5085928;28;20035;-77
2023/07/11 00:12:47;;;;;;;7.32;3.20;;;;;;;22.78;100.00;-18638.78;5081658;28;20129;-76
2023/07/11 00:15:15;;;;;;;6.43;3.70;;;;;;;22.63;100.00;-18634.84;5084391;28;20442;-76
2023/07/11 00:17:40;;;;;;;6.50;3.70;;;;;;;22.65;100.00;-18635.25;5079591;28;20123;-77
2023/07/11 00:20:08;;;;;;;7.72;3.72;;;;;;;22.63;100.00;-18634.84;5079600;28;20548;-75
2023/07/11 00:22:34;;;;;;;7.65;3.50;;;;;;;22.71;100.00;-18636.88;5083345;28;20036;-75
2023/07/11 00:24:59;;;;;;;7.88;3.58;;;;;;;22.69;100.00;-18636.47;5083191;28;20032;-76
2023/07/11 00:27:25;;;;;;;8.05;3.70;;;;;;;22.77;100.00;-18638.50;5075336;28;20066;-77
2023/07/11 00:29:51;;;;;;;5.85;3.25;;;;;;;22.80;100.00;-18639.19;5066386;28;20071;-77
2023/07/11 00:32:18;;;;;;;5.93;3.35;;;;;;;22.83;100.00;-18640.13;5082820;28;20039;-78
2023/07/11 00:34:43;;;;;;;5.22;3.13;;;;;;;22.78;100.00;-18638.66;5077064;28;20032;-78
2023/07/11 00:37:10;;;;;;;6.80;3.10;;;;;;;22.67;100.00;-18635.94;5084249;28;20047;-75
2023/07/11 00:39:36;;;;;;;5.75;3.28;;;;;;;22.65;100.00;-18635.38;5076989;28;20137;-76
2023/07/11 00:42:05;;;;;;;5.97;3.17;;;;;;;22.61;100.00;-18634.31;5080418;28;20104;-75
2023/07/11 00:44:52;;;;;;;5.50;3.50;;;;;;;22.66;100.00;-18635.66;5079413;28;20036;-75
2023/07/11 00:47:17;;;;;;;7.15;3.42;;;;;;;22.68;100.00;-18636.06;5060757;28;20127;-76
2023/07/11 00:49:43;;;;;;;5.70;3.38;;;;;;;22.59;100.00;-18633.75;5080867;28;21410;-75
2023/07/11 00:52:09;;;;;;;5.75;3.28;;;;;;;22.63;100.00;-18634.72;5077347;28;20055;-75
2023/07/11 00:54:36;;;;;;;8.35;3.75;;;;;;;22.63;100.00;-18634.72;5078360;28;20065;-77
2023/07/11 00:57:06;;;;;;;8.70;3.63;;;;;;;22.67;100.00;-18635.94;5080777;28;20044;-77
2023/07/11 00:59:31;;;;;;;8.90;4.15;;;;;;;22.70;100.00;-18636.59;5081978;28;20645;-79
2023/07/11 01:02:12;;;;;;;10.50;4.28;;;;;;;22.81;100.00;-18639.47;5081073;28;20063;-76
2023/07/11 01:04:39;;;;;;;8.10;3.85;;;;;;;22.75;100.00;-18637.97;5077651;28;20043;-78
2023/07/11 01:07:08;;;;;;;7.63;3.90;;;;;;;22.77;100.00;-18638.38;5069643;28;20496;-76
2023/07/11 01:09:33;;;;;;;9.10;4.10;;;;;;;22.81;100.00;-18639.47;5080376;28;20059;-76
2023/07/11 01:12:02;;;;;;;6.75;3.83;;;;;;;22.90;100.00;-18641.91;5079202;28;20052;-76
2023/07/11 01:14:28;;;;;;;7.18;4.25;;;;;;;22.93;100.00;-18642.72;5082568;28;20387;-78
2023/07/11 01:16:53;;;;;;;9.75;4.03;;;;;;;22.88;100.00;-18641.50;5078043;28;20045;-76
2023/07/11 01:19:20;;;;;;;12.05;4.50;;;;;;;22.97;100.00;-18643.81;5081050;28;20067;-77
2023/07/11 01:21:46;;;;;;;9.10;4.80;;;;;;;22.94;99.67;-18643.00;5058661;28;20043;-76
2023/07/11 01:24:12;;;;;;;9.57;4.65;;;;;;;22.92;100.00;-18642.44;5078829;28;20054;-75
2023/07/11 01:26:37;;;;;;;10.10;4.63;;;;;;;22.90;100.00;-18642.03;5074413;28;20061;-76
2023/07/11 01:29:04;;;;;;;7.63;4.03;;;;;;;22.83;100.00;-18640.00;5073800;28;21140;-77
2023/07/11 01:31:33;;;;;;;9.30;4.40;;;;;;;22.78;100.00;-18638.66;5076087;28;20116;-76
2023/07/11 01:34:03;;;;;;;10.55;5.13;;;;;;;22.76;100.00;-18638.25;5071816;28;20051;-77
2023/07/11 01:36:28;;;;;;;9.43;4.93;;;;;;;22.64;100.00;-18635.13;5082047;28;20093;-78
2023/07/11 01:38:55;;;;;;;7.70;4.22;;;;;;;22.66;100.00;-18635.66;5079713;28;20052;-76
2023/07/11 01:41:20;;;;;;;10.45;5.22;;;;;;;22.77;100.00;-18638.38;5076175;28;20048;-75
2023/07/11 01:43:45;;;;;;;7.68;4.38;;;;;;;22.71;100.00;-18636.88;5081771;28;20056;-76
2023/07/11 01:46:11;;;;;;;9.27;5.18;;;;;;;22.75;100.00;-18637.97;5080590;28;20048;-76
2023/07/11 01:48:36;;;;;;;8.80;5.03;;;;;;;22.70;100.00;-18636.59;5081343;28;20048;-76
2023/07/11 01:51:02;;;;;;;8.02;5.20;;;;;;;22.82;100.00;-18639.72;5081860;28;20036;-76
2023/07/11 01:53:27;;;;;;;8.48;5.13;;;;;;;22.72;100.00;-18637.28;5083256;28;20079;-77
2023/07/11 01:56:04;;;;;;;12.85;5.30;;;;;;;22.69;100.00;-18636.47;5073798;28;20045;-76
2023/07/11 01:58:30;;;;;;;13.05;5.35;;;;;;;22.65;100.00;-18635.25;5059671;28;20064;-76
2023/07/11 02:00:57;;;;;;;7.72;4.97;;;;;;;22.64;100.00;-18634.97;5059168;28;20414;-76
2023/07/11 02:03:23;;;;;;;12.07;5.45;;;;;;;22.56;100.00;-18632.94;5082159;28;20613;-77
2023/07/11 02:05:48;;;;;;;8.88;5.50;;;;;;;22.42;100.00;-18629.28;5075188;28;20141;-77
2023/07/11 02:08:14;;;;;;;9.40;5.95;;;;;;;22.49;100.00;-18631.03;5076400;28;20129;-75
2023/07/11 02:10:39;;;;;;;7.90;4.78;;;;;;;22.44;100.00;-18629.81;5069983;28;20488;-78
2023/07/11 02:13:04;;;;;;;11.02;5.22;;;;;;;22.35;100.00;-18627.25;5077351;28;20056;-76
2023/07/11 02:15:30;;;;;;;9.10;5.80;;;;;;;22.20;100.00;-18623.44;5063337;28;20048;-76
2023/07/11 02:17:57;;;;;;;7.57;5.70;;;;;;;22.18;100.00;-18622.91;5078467;28;20036;-76
2023/07/11 02:20:23;;;;;;;10.82;5.30;;;;;;;22.11;100.00;-18621.00;5077311;28;20119;-76
2023/07/11 02:22:48;;;;;;;8.88;5.25;;;;;;;22.01;100.00;-18618.41;5063352;28;20185;-75
2023/07/11 02:25:13;;;;;;;11.50;6.78;;;;;;;22.04;100.00;-18619.09;5064284;28;20065;-76
2023/07/11 02:27:39;;;;;;;9.07;5.28;;;;;;;22.02;100.00;-18618.53;5079806;28;20044;-77
2023/07/11 02:30:05;;;;;;;9.50;6.25;;;;;;;22.17;100.00;-18622.63;5085426;28;20189;-75
2023/07/11 02:32:30;;;;;;;9.63;5.38;;;;;;;22.09;100.00;-18620.44;5079372;28;20068;-76
2023/07/11 02:34:55;;;;;;;8.65;5.55;;;;;;;22.10;100.00;-18620.72;5079864;28;20666;-76
2023/07/11 02:37:21;;;;;;;11.05;5.60;;;;;;;22.17;100.00;-18622.63;5064328;28;20074;-78
2023/07/11 02:39:47;;;;;;;12.05;5.55;;;;;;;22.15;100.00;-18622.06;5082820;28;20039;-77
2023/07/11 02:42:13;;;;;;;7.53;5.45;;;;;;;22.25;100.00;-18624.81;5084403;28;20047;-76
2023/07/11 02:44:38;;;;;;;9.07;5.05;;;;;;;22.08;100.00;-18620.31;5083675;28;20047;-77
2023/07/11 02:47:04;;;;;;;8.95;5.70;;;;;;;22.12;100.00;-18621.13;5083491;28;20531;-75
2023/07/11 02:49:29;;;;;;;8.85;5.50;;;;;;;22.11;100.00;-18620.84;5079317;28;20097;-76
2023/07/11 02:51:55;;;;;;;10.57;6.20;;;;;;;22.15;100.00;-18622.06;5083178;28;20036;-76
2023/07/11 02:54:20;;;;;;;9.57;5.75;;;;;;;22.02;100.00;-18618.69;5085839;28;20055;-76
2023/07/11 02:56:46;;;;;;;8.90;6.15;;;;;;;22.08;100.00;-18620.31;5082919;28;20070;-77
2023/07/11 02:59:11;;;;;;;9.55;5.55;;;;;;;22.08;100.00;-18620.19;5068237;28;20079;-76
2023/07/11 03:01:36;;;;;;;8.98;5.60;;;;;;;22.02;100.00;-18618.53;5083155;28;20047;-77
2023/07/11 03:04:02;;;;;;;10.55;6.10;;;;;;;22.03;100.00;-18618.81;5083332;28;20424;-77
2023/07/11 03:06:28;;;;;;;10.25;5.90;;;;;;;22.07;100.00;-18620.03;5083989;28;20072;-75
2023/07/11 03:08:54;;;;;;;12.30;6.35;;;;;;;21.97;100.00;-18617.19;5083595;28;20468;-77
2023/07/11 03:11:19;;;;;;;7.45;5.65;;;;;;;21.97;100.00;-18617.19;5085188;28;20101;-75
2023/07/11 03:13:45;;;;;;;12.68;6.20;;;;;;;21.96;100.00;-18616.91;5065902;28;20044;-75
2023/07/11 03:16:10;;;;;;;11.13;5.60;;;;;;;21.77;100.00;-18612.03;5086202;28;20066;-76
2023/07/11 03:18:36;;;;;;;7.95;5.63;;;;;;;21.80;100.00;-18612.84;5083897;28;20044;-75
2023/07/11 03:21:02;;;;;;;9.73;5.90;;;;;;;21.76;100.00;-18611.63;5082490;28;20048;-74
2023/07/11 03:23:29;;;;;;;11.95;6.22;;;;;;;21.76;100.00;-18611.75;5083574;28;20043;-74
2023/07/11 03:25:55;;;;;;;9.13;5.70;;;;;;;21.65;100.00;-18608.75;5083605;28;20051;-76
2023/07/11 03:28:21;;;;;;;10.75;5.65;;;;;;;21.68;100.00;-18609.44;5069212;28;20044;-76
2023/07/11 03:30:47;;;;;;;9.02;5.68;;;;;;;21.58;100.00;-18607.00;5078452;28;20045;-77
2023/07/11 03:33:13;;;;;;;12.75;5.85;;;;;;;21.67;100.00;-18609.19;5083774;28;20052;-76
2023/07/11 03:35:38;;;;;;;8.50;5.15;;;;;;;21.72;100.00;-18610.66;5079258;28;20048;-76
2023/07/11 03:38:04;;;;;;;12.13;6.00;;;;;;;21.73;100.00;-18610.94;5084915;28;20127;-76
2023/07/11 03:40:29;;;;;;;9.25;5.22;;;;;;;21.83;100.00;-18613.66;5084591;28;20040;-75
2023/07/11 03:42:55;;;;;;;11.07;5.50;;;;;;;21.92;100.00;-18615.97;5084372;28;20048;-76
2023/07/11 03:45:21;;;;;;;8.57;5.60;;;;;;;21.94;100.00;-18616.50;5085415;28;20387;-74
2023/07/11 03:47:47;;;;;;;8.75;5.63;;;;;;;21.92;100.00;-18615.81;5073856;28;20044;-75
2023/07/11 03:50:12;;;;;;;11.52;5.78;;;;;;;21.89;100.00;-18615.16;5079869;28;20040;-76
2023/07/11 03:52:37;;;;;;;9.95;5.72;;;;;;;21.80;100.00;-18612.69;5081797;28;20048;-76
2023/07/11 03:55:03;;;;;;;10.25;5.93;;;;;;;21.73;100.00;-18610.94;5085979;28;20040;-77
2023/07/11 03:57:28;;;;;;;11.38;5.43;;;;;;;21.91;100.00;-18615.56;5076571;28;20040;-75
2023/07/11 03:59:54;;;;;;;8.02;5.55;;;;;;;22.01;100.00;-18618.28;5081335;28;20134;-75
2023/07/11 04:02:19;;;;;;;10.73;5.35;;;;;;;22.21;100.00;-18623.72;5066436;28;20042;-76
2023/07/11 04:04:45;;;;;;;7.18;5.43;;;;;;;22.21;100.00;-18623.56;5079319;28;20040;-76
2023/07/11 04:07:10;;;;;;;13.40;5.70;;;;;;;22.36;100.00;-18627.66;5085069;28;20048;-75
2023/07/11 04:09:35;;;;;;;8.38;5.28;;;;;;;22.02;100.00;-18618.53;5078747;28;20047;-77
2023/07/11 04:12:01;;;;;;;7.93;5.18;;;;;;;22.22;100.00;-18623.84;5083457;28;20072;-76
2023/07/11 04:14:26;;;;;;;11.30;5.47;;;;;;;22.00;100.00;-18618.00;5077119;28;20040;-75
2023/07/11 04:16:51;;;;;;;10.82;5.10;;;;;;;22.03;100.00;-18618.81;5081291;28;20036;-76
2023/07/11 04:19:17;;;;;;;7.20;4.97;;;;;;;22.08;100.00;-18620.19;5082989;28;20063;-76
2023/07/11 04:21:43;;;;;;;8.65;5.25;;;;;;;22.10;100.00;-18620.72;5079849;28;20127;-75
2023/07/11 04:24:09;;;;;;;8.80;5.38;;;;;;;22.13;100.00;-18621.41;5084551;28;20044;-76
2023/07/11 04:26:34;;;;;;;9.00;4.95;;;;;;;22.26;100.00;-18624.94;5082840;28;20530;-76
2023/07/11 04:28:59;;;;;;;6.60;4.80;;;;;;;22.09;100.00;-18620.59;5083395;28;20043;-75
2023/07/11 04:31:27;;;;;;;7.18;4.40;;;;;;;22.13;100.00;-18621.53;5077961;28;20067;-75
2023/07/11 04:33:53;;;;;;;9.00;4.93;;;;;;;22.13;100.00;-18621.53;5076041;28;20040;-75
2023/07/11 04:36:18;;;;;;;9.23;5.22;;;;;;;22.22;100.00;-18623.97;5078208;28;20060;-77
2023/07/11 04:38:44;;;;;;;11.50;5.22;;;;;;;22.26;100.00;-18625.06;5083581;28;20043;-76
2023/07/11 04:41:10;;;;;;;11.50;4.95;;;;;;;22.30;100.00;-18626.16;5083472;28;20095;-76
2023/07/11 04:43:36;;;;;;;10.50;5.03;;;;;;;22.40;100.00;-18628.59;5082351;28;20044;-76
2023/07/11 04:46:04;;;;;;;9.82;4.72;;;;;;;22.55;100.00;-18632.66;5084299;28;20134;-75
2023/07/11 04:48:33;;;;;;;7.63;4.18;;;;;;;22.59;100.00;-18633.75;5081221;28;20052;-76
2023/07/11 04:51:02;;;;;;;6.70;3.97;;;;;;;22.57;100.00;-18633.22;5076530;28;20048;-77
2023/07/11 04:53:28;;;;;;;7.78;4.40;;;;;;;22.65;100.00;-18635.38;5066182;28;20086;-75
2023/07/11 04:55:58;;;;;;;10.10;4.65;;;;;;;22.70;100.00;-18636.59;5082589;28;20499;-75
2023/07/11 04:58:24;;;;;;;10.23;4.43;;;;;;;22.89;99.04;-18641.78;5066137;28;20044;-76
2023/07/11 05:00:49;;;;;;;13.95;5.90;;;;;;;22.90;99.53;-18641.91;5076557;28;20052;-76
2023/07/11 05:03:15;;;;;;;7.03;4.25;;;;;;;22.98;97.92;-18644.06;5078181;28;20044;-76
2023/07/11 05:05:40;;;;;;;6.25;4.28;;;;;;;23.07;97.70;-18646.38;5077641;28;20071;-76
2023/07/11 05:08:05;;;;;;;8.45;5.18;;;;;;;23.13;96.37;-18648.16;5075819;28;20036;-76
2023/07/11 05:10:31;;;;;;;6.00;3.95;;;;;;;23.01;96.58;-18644.91;5082073;28;20060;-77
2023/07/11 05:12:56;;;;;;;6.13;3.80;;;;;;;23.09;97.47;-18647.06;5081671;28;20043;-76
2023/07/11 05:15:21;;;;;;;6.32;3.25;;;;;;;23.09;96.50;-18647.06;5082616;28;20132;-77
2023/07/11 05:17:47;;;;;;;9.40;4.28;;;;;;;23.17;96.20;-18649.25;5078006;28;20410;-76
2023/07/11 05:20:12;;;;;;;7.97;3.63;;;;;;;23.32;94.40;-18653.03;5076928;28;20048;-77
2023/07/11 05:22:38;;;;;;;6.05;3.80;;;;;;;23.20;95.86;-18650.06;5076419;28;20734;-76
2023/07/11 05:25:04;;;;;;;7.03;3.72;;;;;;;23.20;96.06;-18650.06;5078253;28;20135;-76
2023/07/11 05:27:30;;;;;;;7.40;3.85;;;;;;;23.26;94.98;-18651.41;5073257;28;20131;-76
2023/07/11 05:29:56;;;;;;;6.93;3.78;;;;;;;23.27;96.08;-18651.69;5071325;28;20442;-76
2023/07/11 05:32:22;;;;;;;6.18;3.58;;;;;;;23.45;94.44;-18656.41;5064401;28;20136;-76
2023/07/11 05:34:47;;;;;;;5.50;3.53;;;;;;;23.55;94.46;-18659.13;5075184;28;20071;-76
2023/07/11 05:37:13;;;;;;;8.50;3.65;;;;;;;23.61;92.97;-18660.91;5077232;28;20057;-76
2023/07/11 05:39:39;;;;;;;6.28;3.10;;;;;;;23.73;91.36;-18663.88;5077895;28;20044;-76
2023/07/11 05:42:04;;;;;;;6.35;3.03;;;;;;;23.75;91.73;-18664.56;5081064;28;20116;-76
2023/07/11 05:44:30;;;;;;;4.57;3.00;;;;;;;23.78;91.68;-18665.25;5062952;28;20039;-76
2023/07/11 05:46:55;;;;;;;7.30;3.30;;;;;;;23.92;90.33;-18669.03;5081892;28;20086;-76
2023/07/11 05:49:20;;;;;;;6.00;3.22;;;;;;;24.00;89.89;-18671.22;5078533;28;20040;-77
2023/07/11 05:51:46;;;;;;;9.35;3.10;;;;;;;24.06;90.50;-18672.84;5061770;28;20098;-76
2023/07/11 05:54:11;;;;;;;9.25;3.67;;;;;;;24.19;88.56;-18676.09;5077368;28;20513;-76
2023/07/11 05:56:37;;;;;;;6.68;3.22;;;;;;;24.30;87.00;-18679.19;5077975;28;20433;-77
2023/07/11 05:59:02;;;;;;;7.35;3.08;;;;;;;24.48;86.49;-18683.81;5068562;28;20553;-77
2023/07/11 06:01:30;;;;;;;6.40;2.97;;;;;;;24.69;84.80;-18689.38;5080389;28;20100;-77
2023/07/11 06:04:10;;;;;;;7.97;3.10;;;;;;;24.73;85.13;-18690.44;5079960;28;20113;-76
2023/07/11 06:06:41;;;;;;;6.28;2.47;;;;;;;24.89;81.75;-18694.66;5080351;28;20048;-76
2023/07/11 06:09:08;;;;;;;6.57;2.72;;;;;;;24.95;81.03;-18696.41;5077728;28;20032;-76
2023/07/11 06:11:33;;;;;;;7.30;2.58;;;;;;;24.95;81.85;-18696.41;5065429;28;20047;-76
2023/07/11 06:13:59;;;;;;;5.47;2.20;;;;;;;24.98;80.93;-18697.22;5064873;28;20036;-76
2023/07/11 06:16:24;;;;;;;6.00;2.35;;;;;;;25.13;79.48;-18701.00;5083243;28;20134;-76
2023/07/11 06:18:51;;;;;;;4.50;2.33;;;;;;;25.32;76.30;-18706.03;5077979;28;20056;-76
2023/07/11 06:21:17;;;;;;;6.88;2.60;;;;;;;25.34;76.31;-18706.69;5065353;28;20044;-77
2023/07/11 06:23:43;;;;;;;4.95;2.47;;;;;;;25.60;75.67;-18713.59;5084569;28;20051;-76
2023/07/11 06:26:09;;;;;;;6.97;2.70;;;;;;;25.63;74.45;-18714.41;5078806;28;20037;-76
2023/07/11 06:28:35;;;;;;;8.57;2.67;;;;;;;25.60;73.53;-18713.59;5082651;28;20044;-76
2023/07/11 06:31:00;;;;;;;6.10;2.53;;;;;;;25.75;72.41;-18717.53;5080157;28;20044;-76
2023/07/11 06:33:26;;;;;;;4.82;2.60;;;;;;;25.91;72.07;-18721.72;5076809;28;20032;-77
2023/07/11 06:35:52;;;;;;;5.20;2.42;;;;;;;26.01;70.72;-18724.44;5083012;28;20444;-77
2023/07/11 06:38:18;;;;;;;6.60;2.22;;;;;;;26.15;71.99;-18727.94;5083407;28;20062;-76
2023/07/11 06:40:52;;;;;;;4.05;2.22;;;;;;;26.22;69.04;-18729.84;5085689;28;20047;-77
2023/07/11 06:43:18;;;;;;;6.47;2.30;;;;;;;26.20;69.18;-18729.44;5053898;28;20528;-76
2023/07/11 06:45:55;;;;;;;5.70;2.70;;;;;;;26.30;69.08;-18732.00;5069318;28;20051;-79
2023/07/11 06:48:22;;;;;;;6.78;2.58;;;;;;;26.39;69.35;-18734.28;5067069;28;20115;-75
2023/07/11 06:50:56;;;;;;;7.45;2.58;;;;;;;26.56;66.51;-18738.91;5068117;28;20040;-76
2023/07/11 06:53:28;;;;;;;7.15;2.70;;;;;;;26.51;66.42;-18737.69;5058997;28;20059;-77
2023/07/11 06:55:54;;;;;;;5.25;2.60;;;;;;;26.52;67.58;-18737.94;5080036;28;20106;-76
2023/07/11 06:58:20;;;;;;;7.35;2.35;;;;;;;26.88;63.70;-18747.28;5074267;28;20040;-75
2023/07/11 07:01:01;;;;;;;7.70;2.20;;;;;;;26.86;64.36;-18746.88;5075954;28;20048;-76
2023/07/11 07:03:27;;;;;;;5.13;2.00;;;;;;;26.71;65.61;-18742.81;5035281;28;20131;-75
2023/07/11 07:05:58;;;;;;;7.38;2.97;;;;;;;26.54;65.57;-18738.50;5078547;28;20501;-75
2023/07/11 07:08:24;;;;;;;4.35;2.40;;;;;;;26.81;64.97;-18745.38;5077215;28;20036;-76
2023/07/11 07:10:50;;;;;;;7.88;2.60;;;;;;;26.82;64.38;-18745.66;5087718;28;20036;-74
2023/07/11 07:13:18;;;;;;;6.60;2.45;;;;;;;26.81;61.96;-18745.38;5083612;28;20607;-77
2023/07/11 07:15:48;;;;;;;5.65;2.72;;;;;;;26.82;63.90;-18745.66;5081499;28;20753;-76
2023/07/11 07:18:13;;;;;;;4.78;2.05;;;;;;;26.87;64.72;-18747.13;5075038;28;20383;-75
2023/07/11 07:20:39;;;;;;;5.57;2.58;;;;;;;27.03;62.93;-18751.31;5083553;28;20046;-75
2023/07/11 07:23:05;;;;;;;5.85;2.40;;;;;;;26.92;62.97;-18748.34;5077521;28;20098;-76
2023/07/11 07:25:30;;;;;;;5.40;2.83;;;;;;;26.98;61.62;-18750.09;5083554;28;20260;-77
2023/07/11 07:27:57;;;;;;;5.38;2.13;;;;;;;27.20;60.77;-18755.78;5069609;28;20553;-76
2023/07/11 07:30:23;;;;;;;6.03;2.40;;;;;;;27.34;59.67;-18759.56;5080457;28;20055;-77
2023/07/11 07:32:48;;;;;;;3.90;1.88;;;;;;;27.33;58.01;-18759.16;5072211;28;20388;-77
2023/07/11 07:35:14;;;;;;;6.72;2.20;;;;;;;27.36;59.10;-18759.97;5086079;28;20048;-77
2023/07/11 07:37:39;;;;;;;6.53;2.40;;;;;;;27.51;61.44;-18764.03;5068732;28;20039;-75
2023/07/11 07:40:06;;;;;;;6.72;2.22;;;;;;;27.61;58.95;-18766.59;5080866;28;20074;-77
2023/07/11 07:42:31;;;;;;;4.78;2.17;;;;;;;27.62;57.34;-18766.84;5074695;28;20044;-77
2023/07/11 07:44:57;;;;;;;5.43;2.00;;;;;;;27.58;56.06;-18765.91;5062549;28;20079;-77
2023/07/11 07:47:22;;;;;;;6.47;2.20;;;;;;;27.66;57.31;-18767.94;5080532;28;20398;-76
2023/07/11 07:49:47;;;;;;;7.57;2.50;;;;;;;27.82;56.92;-18772.13;5076935;28;20132;-75
2023/07/11 07:52:13;;;;;;;6.40;2.13;;;;;;;28.11;57.06;-18779.81;5076379;28;20068;-76
2023/07/11 07:54:38;;;;;;;9.55;2.30;;;;;;;28.20;55.80;-18782.09;5077292;28;20049;-76
2023/07/11 07:57:04;;;;;;;6.88;1.92;;;;;;;28.19;54.24;-18781.97;5056896;28;20044;-77
2023/07/11 07:59:30;;;;;;;6.18;2.20;;;;;;;28.34;55.37;-18785.88;5085459;28;20059;-77
2023/07/11 08:01:56;;;;;;;6.13;2.05;;;;;;;28.46;52.97;-18789.13;5081745;28;20039;-75
2023/07/11 08:04:22;;;;;;;5.57;2.20;;;;;;;28.46;52.93;-18789.13;5075818;28;20036;-74
2023/07/11 08:06:47;;;;;;;5.68;1.88;;;;;;;28.67;53.23;-18794.50;5078152;28;20036;-76
2023/07/11 08:09:12;;;;;;;6.15;2.00;;;;;;;28.51;52.27;-18790.47;5084757;28;20065;-75
2023/07/11 08:11:38;;;;;;;5.60;2.17;;;;;;;28.70;54.83;-18795.31;5079239;28;20120;-78
2023/07/11 08:14:03;;;;;;;7.45;2.63;;;;;;;28.87;51.22;-18799.91;5083556;28;20032;-76
2023/07/11 08:16:29;;;;;;;5.93;2.67;;;;;;;28.92;52.28;-18801.25;5077792;28;20127;-76
2023/07/11 08:18:54;;;;;;;4.57;2.10;;;;;;;29.02;52.07;-18803.94;5073601;28;20037;-76
2023/07/11 08:21:20;;;;;;;5.68;2.10;;;;;;;29.11;52.60;-18806.09;5063579;28;20450;-77
2023/07/11 08:23:46;;;;;;;6.35;1.80;;;;;;;29.14;50.54;-18807.03;5082695;28;20151;-77
2023/07/11 08:26:11;;;;;;;6.82;2.30;;;;;;;29.30;52.45;-18811.22;5065484;28;20044;-75
2023/07/11 08:28:36;;;;;;;5.40;2.55;;;;;;;29.45;49.69;-18815.25;5082660;28;20043;-77
2023/07/11 08:31:05;;;;;;;5.22;2.00;;;;;;;29.42;50.32;-18814.31;5083481;28;20097;-77
2023/07/11 08:33:30;;;;;;;6.22;2.15;;;;;;;29.49;50.46;-18816.06;5075475;28;20036;-75
2023/07/11 08:35:56;;;;;;;6.72;2.42;;;;;;;29.62;49.32;-18819.56;5079984;28;20032;-76
2023/07/11 08:38:22;;;;;;;4.35;1.60;;;;;;;29.75;49.53;-18823.06;5083042;28;20044;-77
2023/07/11 08:40:48;;;;;;;4.63;1.90;;;;;;;29.79;47.79;-18824.03;5082418;28;20041;-77
2023/07/11 08:43:22;;;;;;;3.67;1.63;;;;;;;29.88;49.08;-18826.56;5083023;28;20112;-76
2023/07/11 08:45:55;;;;;;;6.65;2.10;;;;;;;29.45;50.81;-18815.13;5077872;28;21186;-77
2023/07/11 08:48:27;;;;;;;5.65;2.10;;;;;;;29.45;50.30;-18815.13;5082167;28;20453;-76
2023/07/11 08:51:20;;;;;;;5.13;2.03;;;;;;;29.55;49.22;-18817.69;5078566;28;20052;-77
2023/07/11 08:53:51;;;;;;;7.63;2.28;;;;;;;29.57;48.37;-18818.22;5079473;28;20093;-77
2023/07/11 08:56:43;;;;;;;6.00;1.90;;;;;;;29.63;47.89;-18819.84;5078808;28;20056;-75
2023/07/11 08:59:45;;;;;;;5.50;2.20;;;;;;;29.68;48.57;-18821.31;5078414;28;20101;-77
2023/07/11 09:02:10;;;;;;;8.27;2.05;;;;;;;29.67;47.93;-18821.06;5060737;28;20053;-75
2023/07/11 09:04:45;;;;;;;4.57;2.28;;;;;;;29.65;48.21;-18820.38;5069483;28;20044;-77
2023/07/11 09:07:36;;;;;;;5.10;2.00;;;;;;;30.12;46.58;-18832.75;5074300;28;20530;-77
2023/07/11 09:10:12;;;;;;;5.88;2.10;;;;;;;30.08;45.66;-18831.69;5076973;28;20036;-77
2023/07/11 09:12:53;;;;;;;5.75;1.63;;;;;;;30.27;44.18;-18836.81;5069436;28;20040;-76
2023/07/11 09:15:29;;;;;;;6.40;2.08;;;;;;;30.29;43.95;-18837.22;5038068;28;20040;-75
2023/07/11 09:18:18;;;;;;;7.47;2.00;;;;;;;30.50;43.25;-18842.84;5078912;28;20036;-77
2023/07/11 09:21:14;;;;;;;5.85;2.10;;;;;;;30.42;43.04;-18840.56;5025838;28;20037;-75
2023/07/11 09:23:40;;;;;;;4.78;2.05;;;;;;;30.20;42.59;-18834.91;5038947;28;20574;-76
2023/07/11 09:26:12;;;;;;;5.72;2.35;;;;;;;30.25;42.88;-18836.28;5049894;28;20043;-77
2023/07/11 09:28:40;;;;;;;5.28;1.67;;;;;;;30.34;43.14;-18838.69;5041176;28;20224;-77
2023/07/11 09:31:11;;;;;;;6.80;2.10;;;;;;;30.66;43.50;-18846.88;5037091;28;20107;-77
2023/07/11 09:33:39;;;;;;;6.38;2.13;;;;;;;30.72;43.20;-18848.63;5038244;28;20044;-75
2023/07/11 09:36:23;;;;;;;5.75;1.90;;;;;;;30.82;43.18;-18851.06;5025719;28;20059;-77
2023/07/11 09:38:56;;;;;;;6.18;2.40;;;;;;;30.85;41.91;-18851.88;5042600;28;20037;-76
2023/07/11 09:41:32;;;;;;;5.85;1.95;;;;;;;30.78;41.77;-18850.25;5001210;28;20044;-78
2023/07/11 09:43:57;;;;;;;4.88;1.95;;;;;;;30.86;42.23;-18852.13;5051512;28;20044;-78
2023/07/11 09:46:25;;;;;;;6.10;1.90;;;;;;;31.01;41.92;-18856.16;5031613;28;20506;-76
2023/07/11 09:48:54;;;;;;;8.00;2.42;;;;;;;31.21;42.47;-18861.53;5041496;28;20036;-77
2023/07/11 09:51:39;;;;;;;5.35;2.25;;;;;;;30.98;42.11;-18855.38;5045828;28;20048;-77
2023/07/11 09:54:20;;;;;;;3.55;1.65;;;;;;;31.18;41.36;-18860.59;5071578;28;20380;-77
2023/07/11 09:56:52;;;;;;;5.90;1.98;;;;;;;31.28;40.04;-18863.16;5082555;28;20097;-76
2023/07/11 09:59:20;;;;;;;5.07;2.15;;;;;;;31.46;38.40;-18868.00;5074682;28;20054;-77
2023/07/11 10:01:55;;;;;;;5.85;1.95;;;;;;;31.19;38.38;-18860.88;5076258;28;20036;-77
2023/07/11 10:04:37;;;;;;;6.68;1.90;;;;;;;31.48;38.95;-18868.53;5050311;28;20264;-77
2023/07/11 10:07:08;;;;;;;5.47;1.70;;;;;;;31.10;37.81;-18858.59;5019497;28;20128;-76
2023/07/11 10:09:42;;;;;;;4.20;1.77;;;;;;;31.23;36.69;-18861.94;5026853;28;20041;-76
2023/07/11 10:12:23;;;;;;;4.03;1.92;;;;;;;31.11;38.04;-18858.84;5022556;28;20128;-76
2023/07/11 10:14:57;;;;;;;4.68;2.08;;;;;;;31.19;37.12;-18861.00;5024118;28;20079;-76
2023/07/11 10:17:32;;;;;;;7.47;2.35;;;;;;;31.59;38.02;-18871.50;5027088;28;20049;-76
2023/07/11 10:19:59;;;;;;;5.13;1.85;;;;;;;31.62;36.98;-18872.16;5019747;28;20092;-75
2023/07/11 10:22:27;;;;;;;6.20;2.72;;;;;;;31.44;37.53;-18867.47;5024320;28;20041;-77
2023/07/11 10:25:02;;;;;;;4.35;1.95;;;;;;;31.63;38.38;-18872.44;5024919;28;20173;-76
2023/07/11 10:27:34;;;;;;;9.02;2.30;;;;;;;31.41;37.96;-18866.66;5026481;28;20052;-77
2023/07/11 10:30:03;;;;;;;6.53;2.33;;;;;;;31.22;38.65;-18861.69;5016729;28;20042;-77
2023/07/11 10:32:48;;;;;;;9.73;2.13;;;;;;;31.38;38.56;-18865.84;5024143;28;20049;-77
2023/07/11 10:35:20;;;;;;;5.85;2.50;;;;;;;31.39;38.94;-18866.25;5024897;28;20455;-77
2023/07/11 10:37:54;;;;;;;8.52;2.78;;;;;;;31.44;38.91;-18867.59;5056288;28;20032;-76
2023/07/11 10:40:28;;;;;;;6.15;2.20;;;;;;;31.58;39.30;-18871.22;5075623;28;20076;-76
2023/07/11 10:42:54;;;;;;;4.93;2.40;;;;;;;31.60;38.90;-18871.75;5064063;28;20048;-76
2023/07/11 10:45:29;;;;;;;6.67;2.57;;;;;;;31.64;38.56;-18872.84;5084374;28;20052;-77
2023/07/11 10:48:34;;;;;;;6.15;2.25;;;;;;;31.67;38.45;-18873.63;5088070;28;20281;-77
2023/07/11 10:51:08;;;;;;;5.53;1.92;;;;;;;31.83;38.55;-18877.66;5053138;28;20043;-76
2023/07/11 10:53:44;;;;;;;4.78;2.30;;;;;;;32.03;38.26;-18882.91;5079057;28;20064;-76
2023/07/11 10:56:30;;;;;;;6.95;2.00;;;;;;;32.00;37.42;-18882.25;5075486;28;20040;-77
2023/07/11 10:58:57;;;;;;;8.52;2.65;;;;;;;32.09;37.32;-18884.66;5084970;28;20036;-76
2023/07/11 11:01:23;;;;;;;4.90;2.15;;;;;;;32.21;38.09;-18887.59;5082437;28;20072;-77
2023/07/11 11:03:52;;;;;;;5.03;1.73;;;;;;;32.14;36.83;-18886.00;5085819;28;20120;-76
2023/07/11 11:06:27;;;;;;;4.20;1.75;;;;;;;32.09;36.01;-18884.66;5081514;28;20124;-78
2023/07/11 11:09:07;;;;;;;3.65;1.70;;;;;;;32.27;35.69;-18889.22;5083534;28;20173;-76
2023/07/11 11:11:35;;;;;;;6.80;1.92;;;;;;;32.14;34.11;-18886.00;5055890;28;20047;-77
2023/07/11 11:14:22;;;;;;;5.30;1.80;;;;;;;32.33;34.04;-18890.81;5086643;28;20036;-76
2023/07/11 11:17:09;;;;;;;5.55;1.85;;;;;;;32.36;33.38;-18891.63;5068812;28;20406;-77
2023/07/11 11:19:50;;;;;;;3.85;1.60;;;;;;;32.14;33.75;-18886.00;5080385;28;20106;-76
2023/07/11 11:22:37;;;;;;;4.32;1.90;;;;;;;32.38;33.56;-18892.16;5068742;28;20053;-76
2023/07/11 11:25:18;;;;;;;4.40;1.98;;;;;;;32.51;34.39;-18895.66;5087549;28;20048;-75
2023/07/11 11:27:50;;;;;;;4.53;2.13;;;;;;;32.38;35.46;-18892.16;5083296;28;20043;-77